JM-0010 weather

Nain Airstrip
Saint Elizabeth, Jamaica

Public forecast

Using degrees Celsius for public forecast. Weather courtesy of forecast.io.

METAR (pilot weather report)

Closest report is Sangster International Airport, 36.1 nm (66.9 km) NNW. Retrieved 2019/02/15 21:00 UTC (37 minutes ago):

MKJS 152100Z 06012KT 9999 FEW022 28/21 Q1011

TAF (pilot weather forecast)

Closest forecast is Sangster International Airport, 36.1 nm (66.9 km) NNW. Retrieved 2019/02/15 18:14 UTC (3 hours ago):

TAF MKJS 151715Z 1518/1618 07017KT 9999 FEW022 PROB40 TEMPO 1519/1523 7000 SHRA SCT018 BKN032 BECMG 1600/1602 13005KT FEW022 BECMG 1614/1616 07015KT